sensor_id;sensor_type;location;lat;lon;timestamp;P1;durP1;ratioP1;P2;durP2;ratioP2
10114;SDS011;5097;43.260;27.812;2023-09-19T00:01:57;30.27;;;19.17;;
10114;SDS011;5097;43.260;27.812;2023-09-19T00:04:42;38.53;;;22.43;;
10114;SDS011;5097;43.260;27.812;2023-09-19T00:07:27;35.57;;;21.53;;
10114;SDS011;5097;43.260;27.812;2023-09-19T00:10:11;34.07;;;19.43;;
10114;SDS011;5097;43.260;27.812;2023-09-19T00:12:55;26.87;;;16.40;;
10114;SDS011;5097;43.260;27.812;2023-09-19T00:15:41;19.27;;;11.50;;
10114;SDS011;5097;43.260;27.812;2023-09-19T00:18:33;10.43;;;7.80;;
10114;SDS011;5097;43.260;27.812;2023-09-19T00:21:18;9.53;;;7.63;;
10114;SDS011;5097;43.260;27.812;2023-09-19T00:24:03;8.23;;;6.57;;
10114;SDS011;5097;43.260;27.812;2023-09-19T00:26:48;7.27;;;5.53;;
10114;SDS011;5097;43.260;27.812;2023-09-19T00:29:33;7.37;;;5.63;;
10114;SDS011;5097;43.260;27.812;2023-09-19T00:32:18;6.70;;;5.00;;
10114;SDS011;5097;43.260;27.812;2023-09-19T00:35:04;7.10;;;5.57;;
10114;SDS011;5097;43.260;27.812;2023-09-19T00:37:49;5.73;;;4.83;;
10114;SDS011;5097;43.260;27.812;2023-09-19T00:40:33;8.10;;;6.17;;
10114;SDS011;5097;43.260;27.812;2023-09-19T00:43:17;7.60;;;6.07;;
10114;SDS011;5097;43.260;27.812;2023-09-19T00:46:02;9.13;;;7.03;;
10114;SDS011;5097;43.260;27.812;2023-09-19T00:48:49;9.60;;;6.77;;
10114;SDS011;5097;43.260;27.812;2023-09-19T00:51:35;9.73;;;7.27;;
10114;SDS011;5097;43.260;27.812;2023-09-19T00:54:20;8.93;;;6.13;;
10114;SDS011;5097;43.260;27.812;2023-09-19T00:57:04;6.30;;;5.27;;
10114;SDS011;5097;43.260;27.812;2023-09-19T00:59:50;6.67;;;4.90;;
10114;SDS011;5097;43.260;27.812;2023-09-19T01:02:38;7.53;;;4.97;;
10114;SDS011;5097;43.260;27.812;2023-09-19T01:05:22;6.30;;;5.43;;
10114;SDS011;5097;43.260;27.812;2023-09-19T01:08:09;7.03;;;5.60;;
10114;SDS011;5097;43.260;27.812;2023-09-19T01:10:55;7.30;;;6.40;;
10114;SDS011;5097;43.260;27.812;2023-09-19T01:13:49;9.63;;;7.27;;
10114;SDS011;5097;43.260;27.812;2023-09-19T01:16:42;12.93;;;9.10;;
10114;SDS011;5097;43.260;27.812;2023-09-19T01:22:56;15.80;;;10.93;;
10114;SDS011;5097;43.260;27.812;2023-09-19T01:26:07;17.17;;;12.87;;
10114;SDS011;5097;43.260;27.812;2023-09-19T01:29:06;19.50;;;11.97;;
10114;SDS011;5097;43.260;27.812;2023-09-19T01:32:08;23.07;;;15.13;;
10114;SDS011;5097;43.260;27.812;2023-09-19T01:34:56;19.53;;;14.27;;
10114;SDS011;5097;43.260;27.812;2023-09-19T01:37:46;24.03;;;15.27;;
10114;SDS011;5097;43.260;27.812;2023-09-19T01:40:31;22.77;;;15.87;;
10114;SDS011;5097;43.260;27.812;2023-09-19T01:43:23;20.73;;;15.13;;
10114;SDS011;5097;43.260;27.812;2023-09-19T01:46:14;25.13;;;16.73;;
10114;SDS011;5097;43.260;27.812;2023-09-19T01:49:07;32.27;;;19.60;;
10114;SDS011;5097;43.260;27.812;2023-09-19T01:52:04;37.40;;;23.33;;
10114;SDS011;5097;43.260;27.812;2023-09-19T01:54:56;34.17;;;21.93;;
10114;SDS011;5097;43.260;27.812;2023-09-19T01:57:51;31.33;;;19.43;;
10114;SDS011;5097;43.260;27.812;2023-09-19T02:00:43;23.07;;;15.43;;
10114;SDS011;5097;43.260;27.812;2023-09-19T02:03:30;17.37;;;12.03;;
10114;SDS011;5097;43.260;27.812;2023-09-19T02:06:17;12.20;;;9.43;;
10114;SDS011;5097;43.260;27.812;2023-09-19T02:09:03;11.20;;;8.07;;
10114;SDS011;5097;43.260;27.812;2023-09-19T02:11:48;10.90;;;8.17;;
10114;SDS011;5097;43.260;27.812;2023-09-19T02:14:32;13.47;;;9.87;;
10114;SDS011;5097;43.260;27.812;2023-09-19T02:17:16;14.00;;;10.23;;
10114;SDS011;5097;43.260;27.812;2023-09-19T02:20:00;11.23;;;8.17;;
10114;SDS011;5097;43.260;27.812;2023-09-19T02:22:47;9.43;;;7.57;;
10114;SDS011;5097;43.260;27.812;2023-09-19T02:25:52;9.53;;;6.83;;
10114;SDS011;5097;43.260;27.812;2023-09-19T02:28:37;9.23;;;5.73;;
10114;SDS011;5097;43.260;27.812;2023-09-19T02:31:21;9.97;;;7.43;;
10114;SDS011;5097;43.260;27.812;2023-09-19T02:34:05;11.97;;;8.07;;
10114;SDS011;5097;43.260;27.812;2023-09-19T02:36:51;11.60;;;8.83;;
10114;SDS011;5097;43.260;27.812;2023-09-19T02:39:39;10.10;;;9.07;;
10114;SDS011;5097;43.260;27.812;2023-09-19T02:42:23;14.40;;;9.60;;
10114;SDS011;5097;43.260;27.812;2023-09-19T02:45:08;10.60;;;8.87;;
10114;SDS011;5097;43.260;27.812;2023-09-19T02:47:53;13.00;;;9.47;;
10114;SDS011;5097;43.260;27.812;2023-09-19T02:50:38;14.13;;;8.17;;
10114;SDS011;5097;43.260;27.812;2023-09-19T02:53:23;9.93;;;7.30;;
10114;SDS011;5097;43.260;27.812;2023-09-19T02:56:08;12.03;;;8.07;;
10114;SDS011;5097;43.260;27.812;2023-09-19T02:58:56;13.83;;;9.10;;
10114;SDS011;5097;43.260;27.812;2023-09-19T03:01:43;13.23;;;10.23;;
10114;SDS011;5097;43.260;27.812;2023-09-19T03:04:30;12.43;;;10.00;;
10114;SDS011;5097;43.260;27.812;2023-09-19T03:07:16;14.13;;;9.80;;
10114;SDS011;5097;43.260;27.812;2023-09-19T03:10:00;15.53;;;10.57;;
10114;SDS011;5097;43.260;27.812;2023-09-19T03:12:47;18.03;;;11.97;;
10114;SDS011;5097;43.260;27.812;2023-09-19T03:15:32;29.17;;;15.03;;
10114;SDS011;5097;43.260;27.812;2023-09-19T03:18:17;21.57;;;14.43;;
10114;SDS011;5097;43.260;27.812;2023-09-19T03:21:01;21.90;;;15.03;;
10114;SDS011;5097;43.260;27.812;2023-09-19T03:23:45;22.37;;;14.53;;
10114;SDS011;5097;43.260;27.812;2023-09-19T03:26:30;21.70;;;14.63;;
10114;SDS011;5097;43.260;27.812;2023-09-19T03:29:17;17.73;;;12.47;;
10114;SDS011;5097;43.260;27.812;2023-09-19T03:32:01;17.37;;;11.50;;
10114;SDS011;5097;43.260;27.812;2023-09-19T03:34:47;15.47;;;10.97;;
10114;SDS011;5097;43.260;27.812;2023-09-19T03:37:31;14.53;;;9.60;;
10114;SDS011;5097;43.260;27.812;2023-09-19T03:40:16;11.07;;;9.30;;
10114;SDS011;5097;43.260;27.812;2023-09-19T03:43:04;10.00;;;7.30;;
10114;SDS011;5097;43.260;27.812;2023-09-19T03:45:50;9.63;;;7.67;;
10114;SDS011;5097;43.260;27.812;2023-09-19T03:48:35;11.10;;;7.70;;
10114;SDS011;5097;43.260;27.812;2023-09-19T03:51:19;8.53;;;6.93;;
10114;SDS011;5097;43.260;27.812;2023-09-19T03:54:04;9.50;;;6.90;;
10114;SDS011;5097;43.260;27.812;2023-09-19T03:56:48;11.43;;;8.30;;
10114;SDS011;5097;43.260;27.812;2023-09-19T03:59:32;15.20;;;10.70;;
10114;SDS011;5097;43.260;27.812;2023-09-19T04:02:19;20.20;;;12.73;;
10114;SDS011;5097;43.260;27.812;2023-09-19T04:05:07;22.57;;;14.20;;
10114;SDS011;5097;43.260;27.812;2023-09-19T04:07:51;22.70;;;13.53;;
10114;SDS011;5097;43.260;27.812;2023-09-19T04:10:36;19.17;;;11.30;;
10114;SDS011;5097;43.260;27.812;2023-09-19T04:13:20;16.30;;;10.23;;
10114;SDS011;5097;43.260;27.812;2023-09-19T04:16:04;11.30;;;8.03;;
10114;SDS011;5097;43.260;27.812;2023-09-19T04:18:50;10.67;;;8.50;;
10114;SDS011;5097;43.260;27.812;2023-09-19T04:21:34;8.87;;;6.37;;
10114;SDS011;5097;43.260;27.812;2023-09-19T04:24:18;6.80;;;6.10;;
10114;SDS011;5097;43.260;27.812;2023-09-19T04:27:03;8.37;;;6.30;;
10114;SDS011;5097;43.260;27.812;2023-09-19T04:29:47;5.93;;;5.32;;
10114;SDS011;5097;43.260;27.812;2023-09-19T04:32:33;6.50;;;5.82;;
10114;SDS011;5097;43.260;27.812;2023-09-19T04:35:19;6.13;;;5.53;;
10114;SDS011;5097;43.260;27.812;2023-09-19T04:38:03;5.63;;;5.13;;
10114;SDS011;5097;43.260;27.812;2023-09-19T04:40:49;6.07;;;5.47;;
10114;SDS011;5097;43.260;27.812;2023-09-19T04:43:33;5.00;;;4.60;;
10114;SDS011;5097;43.260;27.812;2023-09-19T04:46:17;6.30;;;4.70;;
10114;SDS011;5097;43.260;27.812;2023-09-19T04:49:01;5.43;;;4.93;;
10114;SDS011;5097;43.260;27.812;2023-09-19T04:51:47;5.43;;;4.93;;
10114;SDS011;5097;43.260;27.812;2023-09-19T04:54:31;5.37;;;4.87;;
10114;SDS011;5097;43.260;27.812;2023-09-19T04:57:16;5.45;;;4.90;;
10114;SDS011;5097;43.260;27.812;2023-09-19T05:00:00;5.97;;;5.35;;
10114;SDS011;5097;43.260;27.812;2023-09-19T05:02:48;10.10;;;7.53;;
10114;SDS011;5097;43.260;27.812;2023-09-19T05:05:33;11.75;;;8.35;;
10114;SDS011;5097;43.260;27.812;2023-09-19T05:08:19;13.45;;;9.80;;
10114;SDS011;5097;43.260;27.812;2023-09-19T05:11:04;18.60;;;10.40;;
10114;SDS011;5097;43.260;27.812;2023-09-19T05:13:48;14.65;;;8.63;;
10114;SDS011;5097;43.260;27.812;2023-09-19T05:16:35;11.52;;;8.05;;
10114;SDS011;5097;43.260;27.812;2023-09-19T05:19:19;10.82;;;7.15;;
10114;SDS011;5097;43.260;27.812;2023-09-19T05:22:04;8.02;;;6.18;;
10114;SDS011;5097;43.260;27.812;2023-09-19T05:24:50;7.07;;;5.90;;
10114;SDS011;5097;43.260;27.812;2023-09-19T05:27:35;5.75;;;5.13;;
10114;SDS011;5097;43.260;27.812;2023-09-19T05:30:19;5.80;;;5.22;;
10114;SDS011;5097;43.260;27.812;2023-09-19T05:33:04;5.30;;;4.88;;
10114;SDS011;5097;43.260;27.812;2023-09-19T05:35:49;5.25;;;4.75;;
10114;SDS011;5097;43.260;27.812;2023-09-19T05:38:34;4.97;;;4.47;;
10114;SDS011;5097;43.260;27.812;2023-09-19T05:41:19;5.20;;;4.70;;
10114;SDS011;5097;43.260;27.812;2023-09-19T05:44:03;4.68;;;4.28;;
10114;SDS011;5097;43.260;27.812;2023-09-19T05:46:49;3.88;;;3.50;;
10114;SDS011;5097;43.260;27.812;2023-09-19T05:49:34;5.32;;;4.20;;
10114;SDS011;5097;43.260;27.812;2023-09-19T05:52:23;3.63;;;3.33;;
10114;SDS011;5097;43.260;27.812;2023-09-19T05:55:07;5.50;;;4.22;;
10114;SDS011;5097;43.260;27.812;2023-09-19T05:57:55;3.90;;;3.47;;
10114;SDS011;5097;43.260;27.812;2023-09-19T06:00:39;4.00;;;3.70;;
10114;SDS011;5097;43.260;27.812;2023-09-19T06:03:25;3.45;;;3.25;;
10114;SDS011;5097;43.260;27.812;2023-09-19T06:06:09;3.65;;;3.35;;
10114;SDS011;5097;43.260;27.812;2023-09-19T06:08:53;5.50;;;3.85;;
10114;SDS011;5097;43.260;27.812;2023-09-19T06:11:38;4.18;;;3.30;;
10114;SDS011;5097;43.260;27.812;2023-09-19T06:14:23;4.25;;;3.90;;
10114;SDS011;5097;43.260;27.812;2023-09-19T06:17:07;4.32;;;3.42;;
10114;SDS011;5097;43.260;27.812;2023-09-19T06:19:51;4.05;;;3.72;;
10114;SDS011;5097;43.260;27.812;2023-09-19T06:22:35;3.40;;;3.10;;
10114;SDS011;5097;43.260;27.812;2023-09-19T06:25:20;9.60;;;5.50;;
10114;SDS011;5097;43.260;27.812;2023-09-19T06:28:05;3.50;;;3.20;;
10114;SDS011;5097;43.260;27.812;2023-09-19T06:30:52;4.05;;;3.75;;
10114;SDS011;5097;43.260;27.812;2023-09-19T06:33:36;3.53;;;3.22;;
10114;SDS011;5097;43.260;27.812;2023-09-19T06:36:22;18.75;;;13.10;;
10114;SDS011;5097;43.260;27.812;2023-09-19T06:39:06;4.55;;;4.15;;
10114;SDS011;5097;43.260;27.812;2023-09-19T06:41:53;5.05;;;3.97;;
10114;SDS011;5097;43.260;27.812;2023-09-19T06:44:37;3.97;;;3.60;;
10114;SDS011;5097;43.260;27.812;2023-09-19T06:47:22;3.35;;;3.05;;
10114;SDS011;5097;43.260;27.812;2023-09-19T06:50:08;3.70;;;3.40;;
10114;SDS011;5097;43.260;27.812;2023-09-19T06:52:56;3.60;;;3.30;;
10114;SDS011;5097;43.260;27.812;2023-09-19T06:55:42;3.40;;;3.20;;
10114;SDS011;5097;43.260;27.812;2023-09-19T06:58:26;3.88;;;3.58;;
10114;SDS011;5097;43.260;27.812;2023-09-19T07:01:10;3.92;;;3.53;;
10114;SDS011;5097;43.260;27.812;2023-09-19T07:03:59;4.00;;;3.58;;
10114;SDS011;5097;43.260;27.812;2023-09-19T07:06:43;3.83;;;3.53;;
10114;SDS011;5097;43.260;27.812;2023-09-19T07:09:28;3.35;;;3.15;;
10114;SDS011;5097;43.260;27.812;2023-09-19T07:12:12;3.10;;;2.90;;
10114;SDS011;5097;43.260;27.812;2023-09-19T07:14:56;3.10;;;2.85;;
10114;SDS011;5097;43.260;27.812;2023-09-19T07:17:40;2.97;;;2.78;;
10114;SDS011;5097;43.260;27.812;2023-09-19T07:20:25;3.10;;;2.90;;
10114;SDS011;5097;43.260;27.812;2023-09-19T07:23:14;2.97;;;2.75;;
10114;SDS011;5097;43.260;27.812;2023-09-19T07:25:58;3.45;;;3.15;;
10114;SDS011;5097;43.260;27.812;2023-09-19T07:28:42;3.08;;;2.75;;
10114;SDS011;5097;43.260;27.812;2023-09-19T07:31:26;3.28;;;2.97;;
10114;SDS011;5097;43.260;27.812;2023-09-19T07:34:12;3.08;;;2.88;;
10114;SDS011;5097;43.260;27.812;2023-09-19T07:36:58;3.28;;;2.50;;
10114;SDS011;5097;43.260;27.812;2023-09-19T07:39:42;3.22;;;3.03;;
10114;SDS011;5097;43.260;27.812;2023-09-19T07:42:27;3.13;;;2.88;;
10114;SDS011;5097;43.260;27.812;2023-09-19T07:45:11;4.25;;;3.50;;
10114;SDS011;5097;43.260;27.812;2023-09-19T07:47:56;4.22;;;3.63;;
10114;SDS011;5097;43.260;27.812;2023-09-19T07:50:42;4.85;;;4.35;;
10114;SDS011;5097;43.260;27.812;2023-09-19T07:53:28;3.70;;;3.40;;
10114;SDS011;5097;43.260;27.812;2023-09-19T07:56:17;2.85;;;2.65;;
10114;SDS011;5097;43.260;27.812;2023-09-19T07:59:02;3.15;;;2.95;;
10114;SDS011;5097;43.260;27.812;2023-09-19T08:01:47;3.67;;;3.38;;
10114;SDS011;5097;43.260;27.812;2023-09-19T08:04:31;3.08;;;2.80;;
10114;SDS011;5097;43.260;27.812;2023-09-19T08:07:16;3.15;;;2.92;;
10114;SDS011;5097;43.260;27.812;2023-09-19T08:10:02;3.72;;;3.42;;
10114;SDS011;5097;43.260;27.812;2023-09-19T08:12:47;3.10;;;2.90;;
10114;SDS011;5097;43.260;27.812;2023-09-19T08:15:40;3.35;;;3.10;;
10114;SDS011;5097;43.260;27.812;2023-09-19T08:18:28;3.00;;;2.80;;
10114;SDS011;5097;43.260;27.812;2023-09-19T08:21:12;2.47;;;2.30;;
10114;SDS011;5097;43.260;27.812;2023-09-19T08:23:59;3.25;;;2.58;;
10114;SDS011;5097;43.260;27.812;2023-09-19T08:26:45;2.83;;;2.63;;
10114;SDS011;5097;43.260;27.812;2023-09-19T08:29:30;3.08;;;2.88;;
10114;SDS011;5097;43.260;27.812;2023-09-19T08:32:15;2.88;;;2.67;;
10114;SDS011;5097;43.260;27.812;2023-09-19T08:35:01;2.90;;;2.70;;
10114;SDS011;5097;43.260;27.812;2023-09-19T08:37:49;2.85;;;2.65;;
10114;SDS011;5097;43.260;27.812;2023-09-19T08:40:36;4.45;;;3.20;;
10114;SDS011;5097;43.260;27.812;2023-09-19T08:43:24;3.35;;;3.05;;
10114;SDS011;5097;43.260;27.812;2023-09-19T08:46:09;3.47;;;3.20;;
10114;SDS011;5097;43.260;27.812;2023-09-19T08:48:58;4.60;;;3.20;;
10114;SDS011;5097;43.260;27.812;2023-09-19T08:51:47;3.78;;;3.47;;
10114;SDS011;5097;43.260;27.812;2023-09-19T08:54:38;3.30;;;3.10;;
10114;SDS011;5097;43.260;27.812;2023-09-19T08:57:25;3.92;;;3.53;;
10114;SDS011;5097;43.260;27.812;2023-09-19T09:00:14;4.93;;;3.35;;
10114;SDS011;5097;43.260;27.812;2023-09-19T09:03:02;3.22;;;3.03;;
10114;SDS011;5097;43.260;27.812;2023-09-19T09:05:49;4.00;;;3.60;;
10114;SDS011;5097;43.260;27.812;2023-09-19T09:08:34;3.50;;;3.20;;
10114;SDS011;5097;43.260;27.812;2023-09-19T09:11:18;4.00;;;3.70;;
10114;SDS011;5097;43.260;27.812;2023-09-19T09:14:04;2.78;;;2.58;;
10114;SDS011;5097;43.260;27.812;2023-09-19T09:16:52;2.75;;;2.55;;
10114;SDS011;5097;43.260;27.812;2023-09-19T09:19:39;3.22;;;2.90;;
10114;SDS011;5097;43.260;27.812;2023-09-19T09:22:23;2.95;;;2.78;;
10114;SDS011;5097;43.260;27.812;2023-09-19T09:25:07;3.22;;;3.00;;
10114;SDS011;5097;43.260;27.812;2023-09-19T09:27:58;3.92;;;2.55;;
10114;SDS011;5097;43.260;27.812;2023-09-19T09:30:43;2.47;;;2.28;;
10114;SDS011;5097;43.260;27.812;2023-09-19T09:33:29;2.70;;;2.50;;
10114;SDS011;5097;43.260;27.812;2023-09-19T09:36:13;2.88;;;2.60;;
10114;SDS011;5097;43.260;27.812;2023-09-19T09:38:57;3.70;;;3.08;;
10114;SDS011;5097;43.260;27.812;2023-09-19T09:41:57;2.85;;;2.40;;
10114;SDS011;5097;43.260;27.812;2023-09-19T09:44:42;2.50;;;2.30;;
10114;SDS011;5097;43.260;27.812;2023-09-19T09:47:40;2.83;;;2.50;;
10114;SDS011;5097;43.260;27.812;2023-09-19T09:50:29;2.88;;;2.67;;
10114;SDS011;5097;43.260;27.812;2023-09-19T09:53:27;2.72;;;2.53;;
10114;SDS011;5097;43.260;27.812;2023-09-19T09:56:15;2.80;;;2.60;;
10114;SDS011;5097;43.260;27.812;2023-09-19T09:58:59;3.53;;;2.72;;
10114;SDS011;5097;43.260;27.812;2023-09-19T10:01:48;2.42;;;2.33;;
10114;SDS011;5097;43.260;27.812;2023-09-19T10:04:32;2.72;;;2.53;;
10114;SDS011;5097;43.260;27.812;2023-09-19T10:07:27;2.50;;;2.40;;
10114;SDS011;5097;43.260;27.812;2023-09-19T10:10:31;2.60;;;2.40;;
10114;SDS011;5097;43.260;27.812;2023-09-19T10:13:27;3.05;;;2.85;;
10114;SDS011;5097;43.260;27.812;2023-09-19T10:16:13;2.42;;;2.33;;
10114;SDS011;5097;43.260;27.812;2023-09-19T10:19:01;3.45;;;2.97;;
10114;SDS011;5097;43.260;27.812;2023-09-19T10:21:49;3.80;;;2.40;;
10114;SDS011;5097;43.260;27.812;2023-09-19T10:24:35;4.65;;;2.40;;
10114;SDS011;5097;43.260;27.812;2023-09-19T10:27:38;2.78;;;2.58;;
10114;SDS011;5097;43.260;27.812;2023-09-19T10:30:25;3.10;;;2.70;;
10114;SDS011;5097;43.260;27.812;2023-09-19T10:33:13;2.42;;;2.33;;
10114;SDS011;5097;43.260;27.812;2023-09-19T10:35:58;2.95;;;2.67;;
10114;SDS011;5097;43.260;27.812;2023-09-19T10:38:43;3.28;;;2.90;;
10114;SDS011;5097;43.260;27.812;2023-09-19T10:41:32;3.20;;;2.90;;
10114;SDS011;5097;43.260;27.812;2023-09-19T10:44:21;2.70;;;2.50;;
10114;SDS011;5097;43.260;27.812;2023-09-19T10:47:07;3.42;;;2.42;;
10114;SDS011;5097;43.260;27.812;2023-09-19T10:49:52;2.67;;;2.47;;
10114;SDS011;5097;43.260;27.812;2023-09-19T10:52:37;3.08;;;2.80;;
10114;SDS011;5097;43.260;27.812;2023-09-19T10:55:24;2.55;;;2.45;;
10114;SDS011;5097;43.260;27.812;2023-09-19T10:58:14;2.65;;;2.50;;
10114;SDS011;5097;43.260;27.812;2023-09-19T11:01:11;3.65;;;2.70;;
10114;SDS011;5097;43.260;27.812;2023-09-19T11:07:07;4.07;;;2.78;;
10114;SDS011;5097;43.260;27.812;2023-09-19T11:09:54;2.85;;;2.65;;
10114;SDS011;5097;43.260;27.812;2023-09-19T11:12:50;2.90;;;2.70;;
10114;SDS011;5097;43.260;27.812;2023-09-19T11:18:51;2.83;;;2.63;;
10114;SDS011;5097;43.260;27.812;2023-09-19T11:21:39;2.90;;;2.70;;
10114;SDS011;5097;43.260;27.812;2023-09-19T11:24:27;2.90;;;2.70;;
10114;SDS011;5097;43.260;27.812;2023-09-19T11:27:14;2.90;;;2.67;;
10114;SDS011;5097;43.260;27.812;2023-09-19T11:33:18;2.97;;;2.78;;
10114;SDS011;5097;43.260;27.812;2023-09-19T11:36:06;2.72;;;2.53;;
10114;SDS011;5097;43.260;27.812;2023-09-19T11:38:59;4.15;;;3.45;;
10114;SDS011;5097;43.260;27.812;2023-09-19T11:41:51;3.05;;;2.78;;
10114;SDS011;5097;43.260;27.812;2023-09-19T11:44:39;3.10;;;2.80;;
10114;SDS011;5097;43.260;27.812;2023-09-19T11:47:23;3.55;;;3.25;;
10114;SDS011;5097;43.260;27.812;2023-09-19T11:50:09;3.38;;;3.00;;
10114;SDS011;5097;43.260;27.812;2023-09-19T11:52:53;2.80;;;2.60;;
10114;SDS011;5097;43.260;27.812;2023-09-19T11:55:38;3.38;;;3.15;;
10114;SDS011;5097;43.260;27.812;2023-09-19T11:58:22;2.95;;;2.75;;
10114;SDS011;5097;43.260;27.812;2023-09-19T12:01:08;3.40;;;3.20;;
10114;SDS011;5097;43.260;27.812;2023-09-19T12:03:57;4.95;;;3.15;;
10114;SDS011;5097;43.260;27.812;2023-09-19T12:06:43;4.00;;;3.40;;
10114;SDS011;5097;43.260;27.812;2023-09-19T12:09:41;3.30;;;3.00;;
10114;SDS011;5097;43.260;27.812;2023-09-19T12:12:26;3.45;;;3.10;;
10114;SDS011;5097;43.260;27.812;2023-09-19T12:15:12;3.15;;;2.88;;
10114;SDS011;5097;43.260;27.812;2023-09-19T12:17:56;3.50;;;3.20;;
10114;SDS011;5097;43.260;27.812;2023-09-19T12:20:44;3.50;;;3.25;;
10114;SDS011;5097;43.260;27.812;2023-09-19T12:23:33;4.03;;;3.72;;
10114;SDS011;5097;43.260;27.812;2023-09-19T12:26:19;3.45;;;2.80;;
10114;SDS011;5097;43.260;27.812;2023-09-19T12:29:10;3.20;;;3.00;;
10114;SDS011;5097;43.260;27.812;2023-09-19T12:31:57;3.28;;;3.00;;
10114;SDS011;5097;43.260;27.812;2023-09-19T12:34:50;4.68;;;3.00;;
10114;SDS011;5097;43.260;27.812;2023-09-19T12:37:37;3.00;;;2.67;;
10114;SDS011;5097;43.260;27.812;2023-09-19T12:40:29;3.28;;;2.88;;
10114;SDS011;5097;43.260;27.812;2023-09-19T12:43:16;3.13;;;2.90;;
10114;SDS011;5097;43.260;27.812;2023-09-19T12:46:01;2.95;;;2.75;;
10114;SDS011;5097;43.260;27.812;2023-09-19T12:48:47;5.22;;;2.88;;
10114;SDS011;5097;43.260;27.812;2023-09-19T12:51:39;3.00;;;2.80;;
10114;SDS011;5097;43.260;27.812;2023-09-19T12:54:23;3.03;;;2.83;;
10114;SDS011;5097;43.260;27.812;2023-09-19T12:57:10;3.10;;;2.80;;
10114;SDS011;5097;43.260;27.812;2023-09-19T13:00:07;3.15;;;2.95;;
10114;SDS011;5097;43.260;27.812;2023-09-19T13:06:01;3.28;;;3.08;;
10114;SDS011;5097;43.260;27.812;2023-09-19T13:08:46;3.45;;;3.20;;
10114;SDS011;5097;43.260;27.812;2023-09-19T13:11:37;3.63;;;3.33;;
10114;SDS011;5097;43.260;27.812;2023-09-19T13:14:24;3.22;;;3.03;;
10114;SDS011;5097;43.260;27.812;2023-09-19T13:17:11;3.08;;;2.83;;
10114;SDS011;5097;43.260;27.812;2023-09-19T13:19:59;3.30;;;3.00;;
10114;SDS011;5097;43.260;27.812;2023-09-19T13:22:45;4.60;;;4.20;;
10114;SDS011;5097;43.260;27.812;2023-09-19T13:25:32;3.00;;;2.80;;
10114;SDS011;5097;43.260;27.812;2023-09-19T13:28:16;3.67;;;3.38;;
10114;SDS011;5097;43.260;27.812;2023-09-19T13:31:01;3.67;;;2.83;;
10114;SDS011;5097;43.260;27.812;2023-09-19T13:33:47;3.22;;;2.92;;
10114;SDS011;5097;43.260;27.812;2023-09-19T13:36:33;5.13;;;3.90;;
10114;SDS011;5097;43.260;27.812;2023-09-19T13:39:17;3.80;;;3.28;;
10114;SDS011;5097;43.260;27.812;2023-09-19T13:42:01;3.15;;;2.95;;
10114;SDS011;5097;43.260;27.812;2023-09-19T13:44:47;3.50;;;3.20;;
10114;SDS011;5097;43.260;27.812;2023-09-19T13:47:32;3.25;;;2.97;;
10114;SDS011;5097;43.260;27.812;2023-09-19T13:50:19;3.42;;;3.22;;
10114;SDS011;5097;43.260;27.812;2023-09-19T13:53:06;3.63;;;3.22;;
10114;SDS011;5097;43.260;27.812;2023-09-19T13:55:50;3.85;;;3.55;;
10114;SDS011;5097;43.260;27.812;2023-09-19T13:58:34;3.05;;;2.85;;
10114;SDS011;5097;43.260;27.812;2023-09-19T14:01:18;4.38;;;3.05;;
10114;SDS011;5097;43.260;27.812;2023-09-19T14:04:04;3.45;;;3.08;;
10114;SDS011;5097;43.260;27.812;2023-09-19T14:06:48;3.33;;;2.92;;
10114;SDS011;5097;43.260;27.812;2023-09-19T14:09:33;3.00;;;2.80;;
10114;SDS011;5097;43.260;27.812;2023-09-19T14:12:17;3.58;;;3.28;;
10114;SDS011;5097;43.260;27.812;2023-09-19T14:15:01;3.10;;;2.90;;
10114;SDS011;5097;43.260;27.812;2023-09-19T14:17:46;3.22;;;2.92;;
10114;SDS011;5097;43.260;27.812;2023-09-19T14:20:32;3.05;;;2.85;;
10114;SDS011;5097;43.260;27.812;2023-09-19T14:23:21;3.25;;;2.92;;
10114;SDS011;5097;43.260;27.812;2023-09-19T14:26:05;3.72;;;2.85;;
10114;SDS011;5097;43.260;27.812;2023-09-19T14:28:49;2.97;;;2.78;;
10114;SDS011;5097;43.260;27.812;2023-09-19T14:31:33;3.05;;;2.85;;
10114;SDS011;5097;43.260;27.812;2023-09-19T14:34:20;3.47;;;3.15;;
10114;SDS011;5097;43.260;27.812;2023-09-19T14:37:06;3.00;;;2.75;;
10114;SDS011;5097;43.260;27.812;2023-09-19T14:39:50;3.30;;;2.90;;
10114;SDS011;5097;43.260;27.812;2023-09-19T14:42:34;3.90;;;2.70;;
10114;SDS011;5097;43.260;27.812;2023-09-19T14:45:20;3.13;;;2.92;;
10114;SDS011;5097;43.260;27.812;2023-09-19T14:48:04;3.17;;;2.97;;
10114;SDS011;5097;43.260;27.812;2023-09-19T14:50:52;3.25;;;3.05;;
10114;SDS011;5097;43.260;27.812;2023-09-19T14:53:38;3.67;;;3.38;;
10114;SDS011;5097;43.260;27.812;2023-09-19T14:56:23;3.20;;;3.00;;
10114;SDS011;5097;43.260;27.812;2023-09-19T14:59:07;3.55;;;3.20;;
10114;SDS011;5097;43.260;27.812;2023-09-19T15:01:53;3.47;;;3.10;;
10114;SDS011;5097;43.260;27.812;2023-09-19T15:04:37;3.65;;;3.35;;
10114;SDS011;5097;43.260;27.812;2023-09-19T15:07:23;2.97;;;2.78;;
10114;SDS011;5097;43.260;27.812;2023-09-19T15:10:10;4.13;;;2.90;;
10114;SDS011;5097;43.260;27.812;2023-09-19T15:12:55;4.07;;;3.08;;
10114;SDS011;5097;43.260;27.812;2023-09-19T15:15:39;3.80;;;3.50;;
10114;SDS011;5097;43.260;27.812;2023-09-19T15:18:24;4.47;;;3.88;;
10114;SDS011;5097;43.260;27.812;2023-09-19T15:21:10;3.30;;;3.10;;
10114;SDS011;5097;43.260;27.812;2023-09-19T15:23:54;3.05;;;2.85;;
10114;SDS011;5097;43.260;27.812;2023-09-19T15:26:40;3.30;;;3.10;;
10114;SDS011;5097;43.260;27.812;2023-09-19T15:29:26;3.25;;;3.00;;
10114;SDS011;5097;43.260;27.812;2023-09-19T15:32:10;3.60;;;3.30;;
10114;SDS011;5097;43.260;27.812;2023-09-19T15:34:55;3.33;;;3.00;;
10114;SDS011;5097;43.260;27.812;2023-09-19T15:37:39;5.25;;;4.78;;
10114;SDS011;5097;43.260;27.812;2023-09-19T15:40:23;7.10;;;6.30;;
10114;SDS011;5097;43.260;27.812;2023-09-19T15:43:08;4.85;;;4.25;;
10114;SDS011;5097;43.260;27.812;2023-09-19T15:45:52;3.60;;;3.33;;
10114;SDS011;5097;43.260;27.812;2023-09-19T15:48:36;3.70;;;3.40;;
10114;SDS011;5097;43.260;27.812;2023-09-19T15:51:20;4.63;;;4.22;;
10114;SDS011;5097;43.260;27.812;2023-09-19T15:54:07;4.13;;;3.72;;
10114;SDS011;5097;43.260;27.812;2023-09-19T15:56:53;7.60;;;4.72;;
10114;SDS011;5097;43.260;27.812;2023-09-19T15:59:39;5.88;;;3.90;;
10114;SDS011;5097;43.260;27.812;2023-09-19T16:02:23;17.80;;;9.32;;
10114;SDS011;5097;43.260;27.812;2023-09-19T16:05:08;4.30;;;3.90;;
10114;SDS011;5097;43.260;27.812;2023-09-19T16:07:54;3.30;;;3.08;;
10114;SDS011;5097;43.260;27.812;2023-09-19T16:10:38;3.88;;;3.58;;
10114;SDS011;5097;43.260;27.812;2023-09-19T16:13:23;4.88;;;3.80;;
10114;SDS011;5097;43.260;27.812;2023-09-19T16:16:08;4.13;;;3.72;;
10114;SDS011;5097;43.260;27.812;2023-09-19T16:18:54;4.32;;;3.88;;
10114;SDS011;5097;43.260;27.812;2023-09-19T16:21:42;4.57;;;4.18;;
10114;SDS011;5097;43.260;27.812;2023-09-19T16:24:26;3.83;;;3.53;;
10114;SDS011;5097;43.260;27.812;2023-09-19T16:27:10;4.90;;;3.80;;
10114;SDS011;5097;43.260;27.812;2023-09-19T16:29:54;3.97;;;3.67;;
10114;SDS011;5097;43.260;27.812;2023-09-19T16:32:39;3.88;;;3.58;;
10114;SDS011;5097;43.260;27.812;2023-09-19T16:35:23;4.13;;;3.60;;
10114;SDS011;5097;43.260;27.812;2023-09-19T16:38:07;3.92;;;3.60;;
10114;SDS011;5097;43.260;27.812;2023-09-19T16:40:52;4.88;;;4.10;;
10114;SDS011;5097;43.260;27.812;2023-09-19T16:43:36;3.85;;;3.55;;
10114;SDS011;5097;43.260;27.812;2023-09-19T16:46:20;3.78;;;3.38;;
10114;SDS011;5097;43.260;27.812;2023-09-19T16:49:06;4.72;;;3.38;;
10114;SDS011;5097;43.260;27.812;2023-09-19T16:51:50;3.90;;;3.60;;
10114;SDS011;5097;43.260;27.812;2023-09-19T16:54:34;3.58;;;3.28;;